createdAt,value
2016-07-04T00:00:13.884Z,61.97
2016-07-04T00:01:13.867Z,61.97
2016-07-04T00:02:13.844Z,61.49
2016-07-04T00:03:13.833Z,61.29
2016-07-04T00:04:13.825Z,61.49
2016-07-04T00:05:13.794Z,61.68
2016-07-04T00:06:13.778Z,62.06
2016-07-04T00:07:13.772Z,62.06
2016-07-04T00:08:13.748Z,62.13
2016-07-04T00:09:13.735Z,61.58
2016-07-04T00:10:13.720Z,61.87
2016-07-04T00:11:13.697Z,62.06
2016-07-04T00:12:13.683Z,61.58
2016-07-04T00:13:13.668Z,61.58
2016-07-04T00:14:13.661Z,61.36
2016-07-04T00:15:13.640Z,61.97
2016-07-04T00:16:13.624Z,62.35
2016-07-04T00:17:13.607Z,61.87
2016-07-04T00:18:13.601Z,61.68
2016-07-04T00:19:13.576Z,62.06
2016-07-04T00:20:13.556Z,61.46
2016-07-04T00:21:13.539Z,62.03
2016-07-04T00:22:13.532Z,62.26
2016-07-04T00:23:13.512Z,62.45
2016-07-04T00:24:13.492Z,62.45
2016-07-04T00:25:13.472Z,62.16
2016-07-04T00:26:13.452Z,62.26
2016-07-04T00:27:13.433Z,61.87
2016-07-04T00:28:13.425Z,62.41
2016-07-04T00:29:13.408Z,62.51
2016-07-04T00:30:13.390Z,61.94
2016-07-04T00:31:13.378Z,62.06
2016-07-04T00:32:13.359Z,62.06
2016-07-04T00:33:13.347Z,61.74
2016-07-04T00:34:13.324Z,61.97
2016-07-04T00:35:13.314Z,62.23
2016-07-04T00:36:12.677Z,62.41
2016-07-04T00:37:13.281Z,62.61
2016-07-04T00:38:13.269Z,62.35
2016-07-04T00:39:13.246Z,62.61
2016-07-04T00:40:13.232Z,62.06
2016-07-04T00:41:13.211Z,62.13
2016-07-04T00:42:13.201Z,62.32
2016-07-04T00:43:13.192Z,62.32
2016-07-04T00:44:13.166Z,62.32
2016-07-04T00:45:13.146Z,62.51
2016-07-04T00:46:13.127Z,62.23
2016-07-04T00:47:13.121Z,62.71
2016-07-04T00:48:13.091Z,62.03
2016-07-04T00:49:13.082Z,62.9
2016-07-04T00:50:13.063Z,62.99
2016-07-04T00:51:13.044Z,62.9
2016-07-04T00:52:13.031Z,62.61
2016-07-04T00:53:13.017Z,63.09
2016-07-04T00:54:13.003Z,63.28
2016-07-04T00:55:12.984Z,63.18
2016-07-04T00:56:12.972Z,63.38
2016-07-04T00:57:12.948Z,63.38
2016-07-04T00:58:12.934Z,63.18
2016-07-04T00:59:12.918Z,62.99
2016-07-04T01:00:12.895Z,62.99
2016-07-04T01:01:12.888Z,62.93
2016-07-04T01:02:12.868Z,62.8
2016-07-04T01:03:12.851Z,62.61
2016-07-04T01:04:12.838Z,63.18
2016-07-04T01:05:12.205Z,62.99
2016-07-04T01:06:12.966Z,62.71
2016-07-04T01:07:12.860Z,62.99
2016-07-04T01:08:12.828Z,62.61
2016-07-04T01:09:12.758Z,62.51
2016-07-04T01:10:12.737Z,62.8
2016-07-04T01:11:12.717Z,62.8
2016-07-04T01:12:12.825Z,62.71
2016-07-04T01:13:12.699Z,63.48
2016-07-04T01:14:12.674Z,63.28
2016-07-04T01:15:12.655Z,63.18
2016-07-04T01:16:12.634Z,62.99
2016-07-04T01:17:12.619Z,62.71
2016-07-04T01:18:12.605Z,62.71
2016-07-04T01:19:12.593Z,62.41
2016-07-04T01:20:12.567Z,62.61
2016-07-04T01:21:12.556Z,62.8
2016-07-04T01:22:12.543Z,63.28
2016-07-04T01:23:12.528Z,63.09
2016-07-04T01:24:12.506Z,63.38
2016-07-04T01:25:12.493Z,63.28
2016-07-04T01:26:12.478Z,63.09
2016-07-04T01:27:12.457Z,63.86
2016-07-04T01:28:12.442Z,63.48
2016-07-04T01:29:12.427Z,63.28
2016-07-04T01:30:12.415Z,63.67
2016-07-04T01:31:12.394Z,63.67
2016-07-04T01:32:12.381Z,63.67
2016-07-04T01:33:12.363Z,63.57
2016-07-04T01:34:12.345Z,63.28
2016-07-04T01:35:12.333Z,63.76
2016-07-04T01:36:12.310Z,63.95
2016-07-04T01:37:12.294Z,63.57
2016-07-04T01:38:12.291Z,63.67
2016-07-04T01:39:12.260Z,63.18
2016-07-04T01:40:11.631Z,63.57
2016-07-04T01:41:12.230Z,63.57
2016-07-04T01:42:12.211Z,63.86
2016-07-04T01:43:12.190Z,64.53
2016-07-04T01:44:12.177Z,64.34
2016-07-04T01:45:12.168Z,64.15
2016-07-04T01:46:12.144Z,63.86
2016-07-04T01:47:11.510Z,63.67
2016-07-04T01:48:12.111Z,63.28
2016-07-04T01:49:12.095Z,63.28
2016-07-04T01:50:12.074Z,63.86
2016-07-04T01:51:12.061Z,64.05
2016-07-04T01:52:12.049Z,63.67
2016-07-04T01:53:12.029Z,63.95
2016-07-04T01:54:12.014Z,63.95
2016-07-04T01:55:11.989Z,63.38
2016-07-04T01:56:11.974Z,63.57
2016-07-04T01:57:11.962Z,63.48
2016-07-04T01:58:11.944Z,63.86
2016-07-04T01:59:11.921Z,63.48
2016-07-04T02:00:11.912Z,63.28
2016-07-04T02:01:11.895Z,63.76
2016-07-04T02:02:11.874Z,64.05
2016-07-04T02:03:11.855Z,63.95
2016-07-04T02:04:11.843Z,64.15
2016-07-04T02:05:11.835Z,64.34
2016-07-04T02:06:11.817Z,64.15
2016-07-04T02:07:11.795Z,64.34
2016-07-04T02:08:11.781Z,64.15
2016-07-04T02:09:11.857Z,63.76
2016-07-04T02:10:11.754Z,64.53
2016-07-04T02:11:11.831Z,64.05
2016-07-04T02:12:11.717Z,64.73
2016-07-04T02:13:11.837Z,64.43
2016-07-04T02:14:11.838Z,64.63
2016-07-04T02:15:11.749Z,64.34
2016-07-04T02:16:11.643Z,64.25
2016-07-04T02:17:11.719Z,64.25
2016-07-04T02:18:11.619Z,64.05
2016-07-04T02:19:11.597Z,64.25
2016-07-04T02:20:11.582Z,64.43
2016-07-04T02:21:11.565Z,64.34
2016-07-04T02:22:11.552Z,64.25
2016-07-04T02:23:11.538Z,64.25
2016-07-04T02:24:11.514Z,64.34
2016-07-04T02:25:11.504Z,64.15
2016-07-04T02:26:11.485Z,64.25
2016-07-04T02:27:11.467Z,63.86
2016-07-04T02:28:11.449Z,64.05
2016-07-04T02:29:11.431Z,63.95
2016-07-04T02:30:11.411Z,64.15
2016-07-04T02:31:11.399Z,64.05
2016-07-04T02:32:11.385Z,63.76
2016-07-04T02:33:11.365Z,63.57
2016-07-04T02:34:10.735Z,63.38
2016-07-04T02:35:11.332Z,63.67
2016-07-04T02:36:11.320Z,63.38
2016-07-04T02:37:11.303Z,64.25
2016-07-04T02:38:11.280Z,64.25
2016-07-04T02:39:11.263Z,63.95
2016-07-04T02:40:10.631Z,63.86
2016-07-04T02:41:11.232Z,63.48
2016-07-04T02:42:11.216Z,63.18
2016-07-04T02:43:11.197Z,63.28
2016-07-04T02:44:11.176Z,64.25
2016-07-04T02:45:11.166Z,64.25
2016-07-04T02:46:11.151Z,64.43
2016-07-04T02:47:11.136Z,63.95
2016-07-04T02:48:11.117Z,64.05
2016-07-04T02:49:11.104Z,64.34
2016-07-04T02:50:11.084Z,64.43
2016-07-04T02:51:11.058Z,64.25
2016-07-04T02:52:11.060Z,63.95
2016-07-04T02:53:11.031Z,64.15
2016-07-04T02:54:11.018Z,63.95
2016-07-04T02:55:11.001Z,64.34
2016-07-04T02:56:10.988Z,64.82
2016-07-04T02:57:10.970Z,64.34
2016-07-04T02:58:10.951Z,64.25
2016-07-04T02:59:10.935Z,64.25
2016-07-04T03:00:10.910Z,64.82
2016-07-04T03:01:10.902Z,64.5
2016-07-04T03:02:10.884Z,64.5
2016-07-04T03:03:10.859Z,64.69
2016-07-04T03:04:10.852Z,64.69
2016-07-04T03:05:10.836Z,64.5
2016-07-04T03:06:10.816Z,64.34
2016-07-04T03:07:10.801Z,64.43
2016-07-04T03:08:10.170Z,64.53
2016-07-04T03:09:10.766Z,64.34
2016-07-04T03:10:10.750Z,64.79
2016-07-04T03:11:10.732Z,64.69
2016-07-04T03:12:10.715Z,64.69
2016-07-04T03:13:10.710Z,65.08
2016-07-04T03:14:10.683Z,64.5
2016-07-04T03:15:10.042Z,64.6
2016-07-04T03:16:10.641Z,64.5
2016-07-04T03:17:10.629Z,64.4
2016-07-04T03:18:10.612Z,64.4
2016-07-04T03:19:10.595Z,64.69
2016-07-04T03:20:10.575Z,64.31
2016-07-04T03:21:10.560Z,64.22
2016-07-04T03:22:10.556Z,64.12
2016-07-04T03:23:10.529Z,64.4
2016-07-04T03:24:10.516Z,64.89
2016-07-04T03:25:10.497Z,64.98
2016-07-04T03:26:10.476Z,64.69
2016-07-04T03:27:10.461Z,64.6
2016-07-04T03:28:10.455Z,64.69
2016-07-04T03:29:10.428Z,64.79
2016-07-04T03:30:10.412Z,64.98
2016-07-04T03:31:10.396Z,64.79
2016-07-04T03:32:10.383Z,65.08
2016-07-04T03:33:10.366Z,64.5
2016-07-04T03:34:10.340Z,64.69
2016-07-04T03:35:10.324Z,64.69
2016-07-04T03:36:10.306Z,64.31
2016-07-04T03:37:10.295Z,64.34
2016-07-04T03:38:10.280Z,64.15
2016-07-04T03:39:10.267Z,64.05
2016-07-04T03:40:10.246Z,63.86
2016-07-04T03:41:10.226Z,64.25
2016-07-04T03:42:10.205Z,64.15
2016-07-04T03:43:10.198Z,64.25
2016-07-04T03:44:10.181Z,64.15
2016-07-04T03:45:10.162Z,64.15
2016-07-04T03:46:10.136Z,64.34
2016-07-04T03:47:10.127Z,64.43
2016-07-04T03:48:10.108Z,64.25
2016-07-04T03:49:10.098Z,64.05
2016-07-04T03:50:10.076Z,64.34
2016-07-04T03:51:10.064Z,64.22
2016-07-04T03:52:10.046Z,64.43
2016-07-04T03:53:10.037Z,64.6
2016-07-04T03:54:10.011Z,64.5
2016-07-04T03:55:09.999Z,64.6
2016-07-04T03:56:09.975Z,64.73
2016-07-04T03:57:09.959Z,64.25
2016-07-04T03:58:09.947Z,63.95
2016-07-04T03:59:09.929Z,64.25
2016-07-04T04:00:09.915Z,64.05
2016-07-04T04:01:09.898Z,64.15
2016-07-04T04:02:09.884Z,64.15
2016-07-04T04:03:09.863Z,64.05
2016-07-04T04:04:09.842Z,64.15
2016-07-04T04:05:09.828Z,63.67
2016-07-04T04:06:09.810Z,63.67
2016-07-04T04:07:09.790Z,63.41
2016-07-04T04:08:09.781Z,63.22
2016-07-04T04:09:09.758Z,63.31
2016-07-04T04:10:09.742Z,62.64
2016-07-04T04:11:09.875Z,62.64
2016-07-04T04:12:09.709Z,62.93
2016-07-04T04:13:09.759Z,62.83
2016-07-04T04:14:09.677Z,62.83
2016-07-04T04:15:09.656Z,62.54
2016-07-04T04:16:09.644Z,62.64
2016-07-04T04:17:09.633Z,62.45
2016-07-04T04:18:09.613Z,62.64
2016-07-04T04:19:09.599Z,62.64
2016-07-04T04:20:09.693Z,62.64
2016-07-04T04:21:09.569Z,62.74
2016-07-04T04:22:09.555Z,62.06
2016-07-04T04:23:09.530Z,62.16
2016-07-04T04:24:09.511Z,61.87
2016-07-04T04:25:09.509Z,61.97
2016-07-04T04:26:09.488Z,61.97
2016-07-04T04:27:09.466Z,61.77
2016-07-04T04:28:09.450Z,62.06
2016-07-04T04:29:09.440Z,62.26
2016-07-04T04:30:09.425Z,62.26
2016-07-04T04:31:09.405Z,62.45
2016-07-04T04:32:09.382Z,61.97
2016-07-04T04:33:09.371Z,62.06
2016-07-04T04:34:09.351Z,62.06
2016-07-04T04:35:09.335Z,62.54
2016-07-04T04:36:09.316Z,62.16
2016-07-04T04:37:09.299Z,61.97
2016-07-04T04:38:09.287Z,62.16
2016-07-04T04:39:09.269Z,61.97
2016-07-04T04:40:09.249Z,61.68
2016-07-04T04:41:09.232Z,61.58
2016-07-04T04:42:08.604Z,62.16
2016-07-04T04:43:09.202Z,62.06
2016-07-04T04:44:09.194Z,61.97
2016-07-04T04:45:09.182Z,61.39
2016-07-04T04:46:08.561Z,62.06
2016-07-04T04:47:09.139Z,62.06
2016-07-04T04:48:09.123Z,62.16
2016-07-04T04:49:09.113Z,62.45
2016-07-04T04:50:09.094Z,62.35
2016-07-04T04:51:09.077Z,62.16
2016-07-04T04:52:08.444Z,62.26
2016-07-04T04:53:09.043Z,61.77
2016-07-04T04:54:09.026Z,62.16
2016-07-04T04:55:09.006Z,62.06
2016-07-04T04:56:08.997Z,62.26
2016-07-04T04:57:08.978Z,61.97
2016-07-04T04:58:08.969Z,61.77
2016-07-04T04:59:08.942Z,61.58
2016-07-04T05:00:08.938Z,62.16
2016-07-04T05:01:08.919Z,62.45
2016-07-04T05:02:08.909Z,61.87
2016-07-04T05:03:08.877Z,61.87
2016-07-04T05:04:08.866Z,62.35
2016-07-04T05:05:08.846Z,62.35
2016-07-04T05:06:08.827Z,62.29
2016-07-04T05:07:08.811Z,62.29
2016-07-04T05:08:08.795Z,61.61
2016-07-04T05:09:08.782Z,62.29
2016-07-04T05:10:08.153Z,62
2016-07-04T05:11:08.759Z,61.71
2016-07-04T05:12:08.736Z,62.38
2016-07-04T05:13:08.719Z,62
2016-07-04T05:14:08.700Z,61.61
2016-07-04T05:15:08.069Z,62.19
2016-07-04T05:16:08.664Z,62.09
2016-07-04T05:17:08.031Z,62
2016-07-04T05:18:08.641Z,62.19
2016-07-04T05:19:08.617Z,62.19
2016-07-04T05:20:08.603Z,61.61
2016-07-04T05:21:08.586Z,62.09
2016-07-04T05:22:08.572Z,62.09
2016-07-04T05:23:08.551Z,62
2016-07-04T05:24:08.542Z,61.9
2016-07-04T05:25:08.515Z,62
2016-07-04T05:26:08.501Z,61.52
2016-07-04T05:27:08.490Z,61.61
2016-07-04T05:28:08.467Z,61.9
2016-07-04T05:29:08.455Z,62
2016-07-04T05:30:08.447Z,61.9
2016-07-04T05:31:08.418Z,61.42
2016-07-04T05:32:08.404Z,61.32
2016-07-04T05:33:08.396Z,61.22
2016-07-04T05:34:08.367Z,61.42
2016-07-04T05:35:08.348Z,61.22
2016-07-04T05:36:07.723Z,61.32
2016-07-04T05:37:08.382Z,61.32
2016-07-04T05:38:07.836Z,61.13
2016-07-04T05:39:11.385Z,61.42
2016-07-04T05:40:08.276Z,61.71
2016-07-04T05:41:08.255Z,61.42
2016-07-04T05:42:08.242Z,61.42
2016-07-04T05:43:08.226Z,61.61
2016-07-04T05:44:08.208Z,61.22
2016-07-04T05:45:08.188Z,61.61
2016-07-04T05:46:07.555Z,61.52
2016-07-04T05:47:08.156Z,61.52
2016-07-04T05:48:08.143Z,61.32
2016-07-04T05:49:07.539Z,61.22
2016-07-04T05:50:08.104Z,61.04
2016-07-04T05:51:08.082Z,61.22
2016-07-04T05:52:08.071Z,61.22
2016-07-04T05:53:08.264Z,61.22
2016-07-04T05:54:08.041Z,61.32
2016-07-04T05:55:08.028Z,61.32
2016-07-04T05:56:07.395Z,61.42
2016-07-04T05:57:07.378Z,61.22
2016-07-04T05:58:07.374Z,61.8
2016-07-04T05:59:07.350Z,61.32
2016-07-04T06:00:07.952Z,61.32
2016-07-04T06:01:07.930Z,61.52
2016-07-04T06:02:07.909Z,61.22
2016-07-04T06:03:07.897Z,61.32
2016-07-04T06:04:07.885Z,61.42
2016-07-04T06:05:07.864Z,61.22
2016-07-04T06:06:07.853Z,61.13
2016-07-04T06:07:07.837Z,61.22
2016-07-04T06:08:07.824Z,61.32
2016-07-04T06:09:07.185Z,61.04
2016-07-04T06:10:07.796Z,61.71
2016-07-04T06:11:07.770Z,61.52
2016-07-04T06:12:07.136Z,61.52
2016-07-04T06:13:07.731Z,61.22
2016-07-04T06:14:07.716Z,61.22
2016-07-04T06:15:07.705Z,61.32
2016-07-04T06:16:07.695Z,61.8
2016-07-04T06:17:07.680Z,61.32
2016-07-04T06:18:07.044Z,61.42
2016-07-04T06:19:07.024Z,61.42
2016-07-04T06:20:07.030Z,61.32
2016-07-04T06:21:07.601Z,61.22
2016-07-04T06:22:06.985Z,61.13
2016-07-04T06:23:07.580Z,61.32
2016-07-04T06:24:06.942Z,61.42
2016-07-04T06:25:06.931Z,61.52
2016-07-04T06:26:07.533Z,61.22
2016-07-04T06:27:07.515Z,61.52
2016-07-04T06:28:07.498Z,61.8
2016-07-04T06:29:07.500Z,61.8
2016-07-04T06:30:07.463Z,61.52
2016-07-04T06:31:06.829Z,61.52
2016-07-04T06:32:07.431Z,61.71
2016-07-04T06:33:07.412Z,61.93
2016-07-04T06:34:07.405Z,61.8
2016-07-04T06:35:07.419Z,61.8
2016-07-04T06:36:07.379Z,61.32
2016-07-04T06:37:06.732Z,61.42
2016-07-04T06:38:07.333Z,61.45
2016-07-04T06:39:07.316Z,61.25
2016-07-04T06:40:07.316Z,61.52
2016-07-04T06:41:07.307Z,61.52
2016-07-04T06:42:06.658Z,61.61
2016-07-04T06:43:07.264Z,61.71
2016-07-04T06:44:07.235Z,61.32
2016-07-04T06:45:07.224Z,61.32
2016-07-04T06:46:07.203Z,61.25
2016-07-04T06:47:07.181Z,61.32
2016-07-04T06:48:07.167Z,61.32
2016-07-04T06:49:06.549Z,61.71
2016-07-04T06:50:07.181Z,61.61
2016-07-04T06:51:07.196Z,61.35
2016-07-04T06:52:07.104Z,61.61
2016-07-04T06:53:07.089Z,61.83
2016-07-04T06:54:07.072Z,61.25
2016-07-04T06:55:06.448Z,61.55
2016-07-04T06:56:07.039Z,61.71
2016-07-04T06:57:07.982Z,61.61
2016-07-04T06:58:06.392Z,61.42
2016-07-04T06:59:06.376Z,62.03
2016-07-04T07:00:06.976Z,61.74
2016-07-04T07:01:06.962Z,61.25
2016-07-04T07:02:06.949Z,61.52
2016-07-04T07:03:06.927Z,61.83
2016-07-04T07:04:06.918Z,61.71
2016-07-04T07:05:06.899Z,62.09
2016-07-04T07:06:06.880Z,61.65
2016-07-04T07:07:06.919Z,62.03
2016-07-04T07:08:06.249Z,61.55
2016-07-04T07:09:06.833Z,61.93
2016-07-04T07:10:06.815Z,62.03
2016-07-04T07:11:06.811Z,62.03
2016-07-04T07:12:06.784Z,61.83
2016-07-04T07:13:06.771Z,61.45
2016-07-04T07:14:06.132Z,61.74
2016-07-04T07:15:06.746Z,62.12
2016-07-04T07:16:06.725Z,62.03
2016-07-04T07:17:07.064Z,61.83
2016-07-04T07:18:07.118Z,62.12
2016-07-04T07:19:06.676Z,62.03
2016-07-04T07:20:06.715Z,61.74
2016-07-04T07:21:06.635Z,61.83
2016-07-04T07:22:07.019Z,61.45
2016-07-04T07:23:06.609Z,61.45
2016-07-04T07:24:05.979Z,61.93
2016-07-04T07:25:05.970Z,61.65
2016-07-04T07:26:06.558Z,61.55
2016-07-04T07:27:06.549Z,61.74
2016-07-04T07:28:06.528Z,61.35
2016-07-04T07:29:05.901Z,61.55
2016-07-04T07:30:06.849Z,61.45
2016-07-04T07:31:06.610Z,61.45
2016-07-04T07:32:06.465Z,61.93
2016-07-04T07:33:06.656Z,61.55
2016-07-04T07:34:06.437Z,61.74
2016-07-04T07:35:05.803Z,61.35
2016-07-04T07:36:06.400Z,61.83
2016-07-04T07:37:06.396Z,61.55
2016-07-04T07:38:06.365Z,61.55
2016-07-04T07:39:05.740Z,61.93
2016-07-04T07:40:06.338Z,62.03
2016-07-04T07:41:06.313Z,61.45
2016-07-04T07:42:05.688Z,62.03
2016-07-04T07:43:06.281Z,61.93
2016-07-04T07:44:06.270Z,61.55
2016-07-04T07:45:06.273Z,61.71
2016-07-04T07:46:06.247Z,61.55
2016-07-04T07:47:05.618Z,62.03
2016-07-04T07:48:05.603Z,61.55
2016-07-04T07:49:06.210Z,61.93
2016-07-04T07:50:05.565Z,61.45
2016-07-04T07:51:06.158Z,61.55
2016-07-04T07:52:05.529Z,61.65
2016-07-04T07:53:06.135Z,61.83
2016-07-04T07:54:06.110Z,61.35
2016-07-04T07:55:05.493Z,61.35
2016-07-04T07:56:06.077Z,61.55
2016-07-04T07:57:06.084Z,61.65
2016-07-04T07:58:06.047Z,61.35
2016-07-04T07:59:06.031Z,61.45
2016-07-04T08:00:05.403Z,61.65
2016-07-04T08:01:05.998Z,61.35
2016-07-04T08:02:05.989Z,61.16
2016-07-04T08:03:05.974Z,61.25
2016-07-04T08:04:05.338Z,61.55
2016-07-04T08:05:05.321Z,61.35
2016-07-04T08:06:05.927Z,61.45
2016-07-04T08:07:05.910Z,61.35
2016-07-04T08:08:05.906Z,61.35
2016-07-04T08:09:05.876Z,61.55
2016-07-04T08:10:05.858Z,61.16
2016-07-04T08:11:05.227Z,61.45
2016-07-04T08:12:05.835Z,61.25
2016-07-04T08:13:05.197Z,61.74
2016-07-04T08:14:05.792Z,61.68
2016-07-04T08:15:05.816Z,61.55
2016-07-04T08:16:05.807Z,61
2016-07-04T08:17:05.131Z,61.48
2016-07-04T08:18:05.737Z,61.29
2016-07-04T08:19:05.710Z,61.07
2016-07-04T08:20:05.717Z,61.55
2016-07-04T08:21:05.058Z,61.29
2016-07-04T08:22:05.671Z,61.1
2016-07-04T08:23:05.663Z,61.68
2016-07-04T08:24:05.640Z,61.29
2016-07-04T08:25:05.001Z,60.9
2016-07-04T08:26:05.630Z,61
2016-07-04T08:27:05.580Z,60.8
2016-07-04T08:28:05.564Z,60.61
2016-07-04T08:29:05.558Z,60.8
2016-07-04T08:30:04.967Z,60.9
2016-07-04T08:31:05.518Z,60.71
2016-07-04T08:32:05.497Z,61.19
2016-07-04T08:33:05.492Z,61
2016-07-04T08:34:04.866Z,61
2016-07-04T08:35:05.460Z,60.71
2016-07-04T08:36:05.446Z,60.9
2016-07-04T08:37:05.421Z,60.32
2016-07-04T08:38:04.797Z,60.61
2016-07-04T08:39:05.424Z,60.71
2016-07-04T08:40:05.387Z,60.61
2016-07-04T08:41:05.366Z,61.1
2016-07-04T08:42:05.342Z,61.19
2016-07-04T08:43:05.327Z,60.42
2016-07-04T08:44:05.318Z,60.8
2016-07-04T08:45:05.294Z,60.35
2016-07-04T08:46:12.296Z,60.35
2016-07-04T08:47:05.400Z,60.35
2016-07-04T08:48:20.401Z,60.42
2016-07-04T08:50:05.224Z,60.35
2016-07-04T08:51:05.201Z,59.97
2016-07-04T08:52:05.191Z,59.87
2016-07-04T08:53:07.575Z,60.83
2016-07-04T08:54:05.166Z,60.35
2016-07-04T08:55:04.519Z,60.35
2016-07-04T08:56:23.270Z,60.35
2016-07-04T08:57:14.394Z,60.06
2016-07-04T08:58:23.478Z,60.45
2016-07-04T08:59:10.010Z,60.16
2016-07-04T09:00:07.334Z,60.93
2016-07-04T09:26:00.719Z,60.06
2016-07-04T09:27:00.706Z,60.19
2016-07-04T09:28:00.689Z,60.26
2016-07-04T09:29:00.677Z,60.19
2016-07-04T09:30:00.672Z,60.26
2016-07-04T09:31:00.639Z,60.19
2016-07-04T09:32:00.007Z,60.35
2016-07-04T09:33:00.618Z,60.06
2016-07-04T09:34:00.609Z,59.61
2016-07-04T09:35:00.569Z,59.71
2016-07-04T09:36:00.562Z,59.52
2016-07-04T09:37:00.550Z,59.52
2016-07-04T09:38:00.528Z,59.71
2016-07-04T09:39:00.522Z,59.8
2016-07-04T09:40:00.515Z,60.38
2016-07-04T09:41:00.494Z,59.9
2016-07-04T09:42:00.484Z,59.52
2016-07-04T09:43:00.450Z,59.42
2016-07-04T09:43:59.824Z,59.42
2016-07-04T09:45:00.414Z,59.52
2016-07-04T09:45:59.796Z,59.71
2016-07-04T09:47:00.409Z,59.52
2016-07-04T09:48:00.374Z,59.71
2016-07-04T09:49:00.355Z,59.71
2016-07-04T09:50:00.344Z,59.61
2016-07-04T09:51:00.345Z,59.68
2016-07-04T09:52:00.305Z,59.71
2016-07-04T09:53:00.296Z,59.78
2016-07-04T09:53:59.673Z,59.68
2016-07-04T09:54:59.649Z,59.42
2016-07-04T09:55:59.640Z,59.68
2016-07-04T09:57:00.244Z,59.8
2016-07-04T09:58:00.218Z,59.71
2016-07-04T09:59:00.203Z,59.39
2016-07-04T09:59:59.577Z,59.61
2016-07-04T10:00:59.564Z,59.23
2016-07-04T10:02:00.165Z,59.42
2016-07-04T10:03:00.150Z,59.42
2016-07-04T10:03:59.517Z,59.13
2016-07-04T10:05:00.148Z,59.42
2016-07-04T10:06:00.099Z,59.9
2016-07-04T10:07:00.080Z,59.42
2016-07-04T10:08:00.084Z,59.32
2016-07-04T10:09:00.049Z,59.71
2016-07-04T10:10:00.043Z,59.42
2016-07-04T10:11:00.025Z,59.23
2016-07-04T10:11:59.390Z,60.1
2016-07-04T10:13:00.013Z,59.03
2016-07-04T10:13:59.362Z,59.32
2016-07-04T10:14:59.954Z,59.42
2016-07-04T10:15:59.944Z,59.42
2016-07-04T10:16:59.927Z,59.03
2016-07-04T10:17:59.917Z,59.13
2016-07-04T10:18:59.897Z,59.13
2016-07-04T10:19:59.272Z,59.03
2016-07-04T10:20:59.973Z,59.03
2016-07-04T10:21:59.237Z,58.94
2016-07-04T10:22:59.832Z,58.84
2016-07-04T10:23:59.822Z,58.84
2016-07-04T10:24:59.189Z,58.94
2016-07-04T10:25:59.806Z,58.84
2016-07-04T10:26:59.768Z,58.84
2016-07-04T10:27:59.763Z,58.84
2016-07-04T10:28:59.745Z,58.94
2016-07-04T10:29:59.112Z,59.13
2016-07-04T10:30:59.088Z,59.03
2016-07-04T10:31:59.699Z,58.65
2016-07-04T10:32:59.681Z,58.55
2016-07-04T10:33:59.665Z,58.55
2016-07-04T10:34:59.646Z,58.45
2016-07-04T10:35:59.633Z,58.45
2016-07-04T10:36:59.627Z,58.75
2016-07-04T10:37:59.598Z,58.65
2016-07-04T10:38:59.588Z,58.65
2016-07-04T10:39:58.954Z,58.45
2016-07-04T10:40:59.562Z,58.55
2016-07-04T10:41:59.544Z,58.65
2016-07-04T10:42:59.534Z,58.84
2016-07-04T10:43:59.509Z,58.55
2016-07-04T10:44:59.493Z,58.55
2016-07-04T10:45:59.480Z,58.84
2016-07-04T10:46:58.856Z,58.75
2016-07-04T10:47:58.844Z,58.75
2016-07-04T10:48:59.438Z,58.84
2016-07-04T10:49:59.426Z,58.84
2016-07-04T10:50:59.415Z,58.75
2016-07-04T10:51:59.394Z,58.75
2016-07-04T10:52:59.372Z,58.45
2016-07-04T10:53:59.364Z,58.07
2016-07-04T10:54:59.347Z,58.07
2016-07-04T10:55:58.714Z,58.65
2016-07-04T10:56:59.327Z,58.94
2016-07-04T10:57:59.303Z,58.65
2016-07-04T10:58:58.667Z,58.55
2016-07-04T10:59:59.269Z,58.45
2016-07-04T11:00:59.252Z,58.75
2016-07-04T11:01:59.238Z,58.84
2016-07-04T11:02:58.605Z,58.84
2016-07-04T11:03:59.214Z,58.65
2016-07-04T11:04:59.186Z,58.94
2016-07-04T11:05:59.176Z,58.75
2016-07-04T11:06:58.544Z,58.55
2016-07-04T11:07:59.134Z,58.84
2016-07-04T11:08:59.126Z,59.13
2016-07-04T11:09:59.114Z,59.03
2016-07-04T11:10:59.095Z,59.03
2016-07-04T11:11:59.086Z,58.75
2016-07-04T11:12:58.448Z,58.94
2016-07-04T11:13:58.433Z,58.84
2016-07-04T11:14:59.034Z,58.84
2016-07-04T11:15:59.022Z,59.03
2016-07-04T11:16:58.393Z,58.75
2016-07-04T11:17:58.992Z,58.84
2016-07-04T11:18:58.973Z,58.65
2016-07-04T11:19:58.967Z,59.13
2016-07-04T11:20:58.996Z,58.94
2016-07-04T11:21:58.314Z,58.84
2016-07-04T11:22:58.903Z,58.94
2016-07-04T11:23:58.902Z,58.45
2016-07-04T11:24:58.887Z,59.03
2016-07-04T11:25:58.870Z,58.75
2016-07-04T11:26:58.842Z,58.65
2016-07-04T11:27:58.841Z,58.26
2016-07-04T11:28:58.825Z,58.17
2016-07-04T11:29:58.805Z,58.84
2016-07-04T11:30:58.791Z,58.65
2016-07-04T11:31:58.161Z,58.55
2016-07-04T11:32:58.761Z,58.84
2016-07-04T11:33:58.736Z,58.75
2016-07-04T11:34:58.731Z,58.55
2016-07-04T11:35:58.721Z,58.55
2016-07-04T11:36:58.697Z,58.55
2016-07-04T11:37:58.680Z,58.55
2016-07-04T11:38:58.661Z,58.36
2016-07-04T11:39:58.036Z,58.75
2016-07-04T11:40:58.639Z,58.65
2016-07-04T11:41:58.620Z,58.17
2016-07-04T11:42:58.607Z,56.81
2016-07-04T11:43:58.590Z,55.66
2016-07-04T11:44:57.964Z,55.76
2016-07-04T11:45:58.578Z,55.85
2016-07-04T11:46:58.542Z,56.14
2016-07-04T11:47:58.537Z,55.18
2016-07-04T11:48:58.516Z,55.56
2016-07-04T11:49:58.498Z,55.46
2016-07-04T11:50:58.478Z,54.72
2016-07-04T11:51:58.466Z,54.5
2016-07-04T11:52:58.458Z,54.21
2016-07-04T11:53:58.441Z,54.43
2016-07-04T11:54:58.425Z,54.31
2016-07-04T11:55:58.399Z,53.66
2016-07-04T11:56:57.771Z,54.05
2016-07-04T11:57:58.371Z,54.53
2016-07-04T11:58:58.367Z,53.56
2016-07-04T11:59:58.337Z,53.95
2016-07-04T12:00:58.335Z,54.53
2016-07-04T12:01:58.312Z,54.53
2016-07-04T12:02:57.684Z,54.62
2016-07-04T12:03:58.297Z,55.01
2016-07-04T12:04:57.670Z,55.49
2016-07-04T12:05:58.255Z,55.68
2016-07-04T12:06:58.248Z,55.68
2016-07-04T12:07:58.221Z,56.07
2016-07-04T12:08:58.208Z,55.78
2016-07-04T12:09:57.576Z,55.88
2016-07-04T12:10:58.163Z,55.59
2016-07-04T12:11:57.582Z,55.88
2016-07-04T12:12:58.154Z,56.07
2016-07-04T12:13:58.137Z,56.26
2016-07-04T12:14:58.122Z,56.36
2016-07-04T12:15:58.110Z,56.36
2016-07-04T12:16:58.100Z,56.65
2016-07-04T12:17:57.462Z,56.65
2016-07-04T12:18:58.055Z,56.84
2016-07-04T12:19:58.031Z,57.04
2016-07-04T12:20:58.068Z,57.14
2016-07-04T12:21:58.017Z,57.42
2016-07-04T12:22:58.015Z,57.23
2016-07-04T12:23:58.003Z,57.42
2016-07-04T12:24:57.364Z,57.81
2016-07-04T12:25:57.958Z,57.52
2016-07-04T12:26:57.929Z,58.29
2016-07-04T12:27:57.317Z,58
2016-07-04T12:28:57.930Z,58
2016-07-04T12:29:57.900Z,57.9
2016-07-04T12:30:57.879Z,57.71
2016-07-04T12:31:57.251Z,58.48
2016-07-04T12:32:57.240Z,58.39
2016-07-04T12:33:57.821Z,58
2016-07-04T12:34:57.815Z,58.58
2016-07-04T12:35:57.802Z,58.68
2016-07-04T12:36:57.786Z,58.68
2016-07-04T12:37:57.162Z,58.48
2016-07-04T12:38:57.753Z,57.71
2016-07-04T12:39:57.128Z,58
2016-07-04T12:40:57.727Z,57.81
2016-07-04T12:41:57.705Z,57.9
2016-07-04T12:42:57.083Z,57.9
2016-07-04T12:43:57.690Z,57.81
2016-07-04T12:44:57.656Z,58
2016-07-04T12:45:57.028Z,57.71
2016-07-04T12:46:57.645Z,58.39
2016-07-04T12:47:57.619Z,58.39
2016-07-04T12:48:57.603Z,58.19
2016-07-04T12:49:56.973Z,57.62
2016-07-04T12:50:57.573Z,58.29
2016-07-04T12:51:57.555Z,58
2016-07-04T12:52:57.541Z,57.81
2016-07-04T12:53:56.922Z,57.81
2016-07-04T12:54:57.511Z,57.62
2016-07-04T12:55:57.510Z,58.29
2016-07-04T12:56:57.479Z,58.1
2016-07-04T12:57:57.457Z,57.9
2016-07-04T12:58:57.447Z,57.71
2016-07-04T12:59:56.816Z,58.39
2016-07-04T13:00:57.434Z,57.71
2016-07-04T13:01:57.420Z,57.81
2016-07-04T13:02:57.386Z,57.9
2016-07-04T13:03:57.371Z,57.81
2016-07-04T13:04:57.354Z,57.62
2016-07-04T13:05:57.344Z,58.1
2016-07-04T13:06:56.716Z,57.71
2016-07-04T13:07:57.308Z,58
2016-07-04T13:08:57.313Z,58.1
2016-07-04T13:09:57.306Z,57.62
2016-07-04T13:10:56.666Z,57.62
2016-07-04T13:11:57.251Z,58.39
2016-07-04T13:12:57.231Z,57.62
2016-07-04T13:13:56.606Z,57.71
2016-07-04T13:14:57.207Z,57.81
2016-07-04T13:15:57.202Z,58.19
2016-07-04T13:16:57.166Z,57.62
2016-07-04T13:17:57.175Z,58.1
2016-07-04T13:18:57.142Z,58
2016-07-04T13:19:56.523Z,57.81
2016-07-04T13:20:57.169Z,57.71
2016-07-04T13:21:57.116Z,57.81